Time;durP1;ratioP1;P1;durP2;ratioP2;P2;SDS_P1;SDS_P2;PMS_P1;PMS_P2;Temp;Humidity;BMP_temperature;BMP_pressure;BME280_temperature;BME280_humidity;BME280_pressure;Samples;Min_cycle;Max_cycle;Signal;HPM_P1;HPM_P2
2023/09/23 00:00:59;;;;;;;;;;;;;;;;;;4928958;28;20354;-66
2023/09/23 00:03:27;;;;;;;;;;;;;;;;;;4937744;28;19922;-64
2023/09/23 00:05:52;;;;;;;;;;;;;;;;;;4937456;28;20416;-62
2023/09/23 00:08:18;;;;;;;;;;;;;;;;;;4930717;28;19926;-64
2023/09/23 00:10:50;;;;;;;;;;;;;;;;;;4954909;28;19918;-65
2023/09/23 00:13:16;;;;;;;;;;;;;;;;;;4913179;28;19929;-64
2023/09/23 00:15:44;;;;;;;;;;;;;;;;;;4934963;28;19918;-64
2023/09/23 00:18:11;;;;;;;;;;;;;;;;;;4927843;28;19929;-64
2023/09/23 00:20:40;;;;;;;;;;;;;;;;;;4936081;28;20005;-64
2023/09/23 00:23:06;;;;;;;;;;;;;;;;;;4934612;28;19926;-65
2023/09/23 00:25:34;;;;;;;;;;;;;;;;;;4937433;28;19972;-65
2023/09/23 00:28:00;;;;;;;;;;;;;;;;;;4957140;28;19926;-65
2023/09/23 00:30:27;;;;;;;;;;;;;;;;;;4920604;28;19922;-66
2023/09/23 00:32:53;;;;;;;;;;;;;;;;;;4937006;28;19918;-65
2023/09/23 00:35:20;;;;;;;;;;;;;;;;;;4935023;28;20056;-65
2023/09/23 00:37:48;;;;;;;;;;;;;;;;;;4953650;28;19918;-65
2023/09/23 00:40:27;;;;;;;;;;;;;;;;;;4935842;28;21995;-65
2023/09/23 00:42:52;;;;;;;;;;;;;;;;;;4954518;28;19937;-66
2023/09/23 00:45:22;;;;;;;;;;;;;;;;;;4941471;28;19970;-65
2023/09/23 00:47:47;;;;;;;;;;;;;;;;;;4965510;28;20021;-65
2023/09/23 00:50:19;;;;;;;;;;;;;;;;;;4946830;28;19994;-65
2023/09/23 00:52:48;;;;;;;;;;;;;;;;;;4946779;28;19929;-65
2023/09/23 00:55:16;;;;;;;;;;;;;;;;;;4951029;28;19917;-66
2023/09/23 00:57:41;;;;;;;;;;;;;;;;;;4971521;28;20596;-66
2023/09/23 01:00:11;;;;;;;;;;;;;;;;;;4968448;28;19917;-65
2023/09/23 01:02:40;;;;;;;;;;;;;;;;;;4968645;28;20028;-66
2023/09/23 01:05:07;;;;;;;;;;;;;;;;;;4968982;28;19921;-65
2023/09/23 01:07:33;;;;;;;;;;;;;;;;;;4971020;28;19957;-66
2023/09/23 01:09:58;;;;;;;;;;;;;;;;;;4968942;28;19953;-65
2023/09/23 01:12:25;;;;;;;;;;;;;;;;;;4970782;28;20656;-68
2023/09/23 01:14:51;;;;;;;;;;;;;;;;;;4951083;28;19922;-68
2023/09/23 01:17:18;;;;;;;;;;;;;;;;;;4968324;28;19985;-67
2023/09/23 01:19:44;;;;;;;;;;;;;;;;;;4949970;28;20016;-67
2023/09/23 01:22:12;;;;;;;;;;;;;;;;;;4967430;28;19932;-65
2023/09/23 01:24:37;;;;;;;;;;;;;;;;;;4934437;28;21952;-63
2023/09/23 01:27:08;;;;;;;;;;;;;;;;;;4951945;28;20009;-64
2023/09/23 01:29:36;;;;;;;;;;;;;;;;;;4951985;28;19917;-64
2023/09/23 01:32:02;;;;;;;;;;;;;;;;;;4946446;28;20931;-65
2023/09/23 01:34:28;;;;;;;;;;;;;;;;;;4967977;28;19937;-64
2023/09/23 01:36:56;;;;;;;;;;;;;;;;;;4967883;28;19931;-65
2023/09/23 01:39:23;;;;;;;;;;;;;;;;;;4967474;28;19918;-63
2023/09/23 01:41:49;;;;;;;;;;;;;;;;;;4969361;28;20336;-66
2023/09/23 01:44:16;;;;;;;;;;;;;;;;;;4966493;28;20301;-65
2023/09/23 01:46:42;;;;;;;;;;;;;;;;;;4968157;28;19929;-64
2023/09/23 01:49:19;;;;;;;;;;;;;;;;;;4946828;28;19957;-65
2023/09/23 01:51:46;;;;;;;;;;;;;;;;;;4935842;28;19921;-66
2023/09/23 01:54:16;;;;;;;;;;;;;;;;;;4962757;28;19923;-65
2023/09/23 01:56:41;;;;;;;;;;;;;;;;;;4968409;28;19917;-65
2023/09/23 01:59:09;;;;;;;;;;;;;;;;;;4965108;28;19980;-65
2023/09/23 02:01:40;;;;;;;;;;;;;;;;;;4949039;28;19932;-65
2023/09/23 02:04:08;;;;;;;;;;;;;;;;;;4945662;28;19949;-66
2023/09/23 02:06:43;;;;;;;;;;;;;;;;;;4968000;28;20044;-66
2023/09/23 02:09:13;;;;;;;;;;;;;;;;;;4948597;28;19921;-65
2023/09/23 02:11:41;;;;;;;;;;;;;;;;;;4965109;28;19918;-65
2023/09/23 02:14:09;;;;;;;;;;;;;;;;;;4970131;28;19953;-65
2023/09/23 02:19:53;;;;;;;;;;;;;;;;;;4952291;28;19925;-65
2023/09/23 02:22:22;;;;;;;;;;;;;;;;;;4959976;28;19968;-65
2023/09/23 02:24:50;;;;;;;;;;;;;;;;;;4966467;28;20020;-65
2023/09/23 02:27:16;;;;;;;;;;;;;;;;;;4969832;28;20028;-65
2023/09/23 02:29:44;;;;;;;;;;;;;;;;;;4966313;28;20032;-66
2023/09/23 02:32:09;;;;;;;;;;;;;;;;;;4965921;28;19980;-66
2023/09/23 02:34:39;;;;;;;;;;;;;;;;;;4937364;28;19918;-66
2023/09/23 02:37:07;;;;;;;;;;;;;;;;;;4947457;28;19924;-67
2023/09/23 02:39:32;;;;;;;;;;;;;;;;;;4968337;28;19925;-65
2023/09/23 02:42:04;;;;;;;;;;;;;;;;;;4934633;28;19968;-66
2023/09/23 02:44:32;;;;;;;;;;;;;;;;;;4949397;28;19925;-65
2023/09/23 02:47:00;;;;;;;;;;;;;;;;;;4970362;28;19917;-65
2023/09/23 02:49:26;;;;;;;;;;;;;;;;;;4945666;28;19918;-66
2023/09/23 02:51:56;;;;;;;;;;;;;;;;;;4932486;28;20009;-66
2023/09/23 02:54:22;;;;;;;;;;;;;;;;;;4930749;28;19925;-65
2023/09/23 03:00:13;;;;;;;;;;;;;;;;;;4968390;28;22133;-65
2023/09/23 03:02:39;;;;;;;;;;;;;;;;;;4944313;28;19925;-65
2023/09/23 03:05:06;;;;;;;;;;;;;;;;;;4968402;28;20837;-66
2023/09/23 03:07:33;;;;;;;;;;;;;;;;;;4948995;28;19922;-65
2023/09/23 03:10:03;;;;;;;;;;;;;;;;;;4948288;28;20565;-65
2023/09/23 03:12:40;;;;;;;;;;;;;;;;;;4951728;28;20838;-65
2023/09/23 03:15:14;;;;;;;;;;;;;;;;;;4956691;28;19918;-65
2023/09/23 03:17:39;;;;;;;;;;;;;;;;;;4967508;28;19964;-65
2023/09/23 03:20:10;;;;;;;;;;;;;;;;;;4967908;28;19949;-65
2023/09/23 03:22:36;;;;;;;;;;;;;;;;;;4945111;28;19930;-65
2023/09/23 03:25:03;;;;;;;;;;;;;;;;;;4936255;28;20729;-65
2023/09/23 03:27:29;;;;;;;;;;;;;;;;;;4962427;28;19980;-65
2023/09/23 03:29:54;;;;;;;;;;;;;;;;;;4939489;28;20017;-66
2023/09/23 03:32:20;;;;;;;;;;;;;;;;;;4961905;28;20008;-64
2023/09/23 03:34:50;;;;;;;;;;;;;;;;;;4964790;28;19929;-64
2023/09/23 03:40:35;;;;;;;;;;;;;;;;;;4969943;28;19924;-65
2023/09/23 03:43:01;;;;;;;;;;;;;;;;;;4967259;28;20296;-64
2023/09/23 03:45:29;;;;;;;;;;;;;;;;;;4966536;28;19929;-64
2023/09/23 03:47:54;;;;;;;;;;;;;;;;;;4949735;28;19921;-65
2023/09/23 03:50:22;;;;;;;;;;;;;;;;;;4949613;28;20020;-64
2023/09/23 03:52:51;;;;;;;;;;;;;;;;;;4951416;28;19929;-65
2023/09/23 03:55:18;;;;;;;;;;;;;;;;;;4928343;28;19918;-64
2023/09/23 03:57:44;;;;;;;;;;;;;;;;;;4943018;28;19929;-64
2023/09/23 04:00:29;;;;;;;;;;;;;;;;;;4971569;28;20906;-65
2023/09/23 04:02:55;;;;;;;;;;;;;;;;;;4971100;28;19940;-65
2023/09/23 04:05:23;;;;;;;;;;;;;;;;;;4958597;28;19922;-65
2023/09/23 04:07:52;;;;;;;;;;;;;;;;;;4949689;28;19917;-65
2023/09/23 04:10:19;;;;;;;;;;;;;;;;;;4943960;28;22138;-64
2023/09/23 04:12:45;;;;;;;;;;;;;;;;;;4967894;28;20068;-65
2023/09/23 04:15:12;;;;;;;;;;;;;;;;;;4947594;28;20005;-64
2023/09/23 04:17:40;;;;;;;;;;;;;;;;;;4952126;28;19929;-65
2023/09/23 04:20:09;;;;;;;;;;;;;;;;;;4936305;28;19918;-64
2023/09/23 04:22:37;;;;;;;;;;;;;;;;;;4951448;28;20638;-65
2023/09/23 04:25:03;;;;;;;;;;;;;;;;;;4935311;28;20065;-65
2023/09/23 04:27:31;;;;;;;;;;;;;;;;;;4949182;28;20290;-65
2023/09/23 04:30:04;;;;;;;;;;;;;;;;;;4949890;28;19932;-65
2023/09/23 04:32:29;;;;;;;;;;;;;;;;;;4948724;28;19938;-65
2023/09/23 04:34:56;;;;;;;;;;;;;;;;;;4949337;28;20469;-64
2023/09/23 04:37:21;;;;;;;;;;;;;;;;;;4971393;28;20008;-64
2023/09/23 04:39:46;;;;;;;;;;;;;;;;;;4969960;28;20460;-64
2023/09/23 04:42:12;;;;;;;;;;;;;;;;;;4967701;28;20762;-65
2023/09/23 04:44:37;;;;;;;;;;;;;;;;;;4950320;28;20805;-65
2023/09/23 04:47:02;;;;;;;;;;;;;;;;;;4950299;28;19922;-64
2023/09/23 04:49:27;;;;;;;;;;;;;;;;;;4948969;28;19954;-64
2023/09/23 04:51:56;;;;;;;;;;;;;;;;;;4969926;28;20391;-65
2023/09/23 04:54:22;;;;;;;;;;;;;;;;;;4965268;28;19921;-65
2023/09/23 04:56:47;;;;;;;;;;;;;;;;;;4952879;28;20600;-64
2023/09/23 04:59:15;;;;;;;;;;;;;;;;;;4947696;28;20038;-65
2023/09/23 05:01:43;;;;;;;;;;;;;;;;;;4935406;28;19981;-65
2023/09/23 05:04:13;;;;;;;;;;;;;;;;;;4973211;28;19921;-65
2023/09/23 05:06:39;;;;;;;;;;;;;;;;;;4966603;28;20456;-65
2023/09/23 05:09:11;;;;;;;;;;;;;;;;;;4967142;28;20037;-65
2023/09/23 05:11:36;;;;;;;;;;;;;;;;;;4960466;28;19929;-66
2023/09/23 05:14:05;;;;;;;;;;;;;;;;;;4955088;28;20000;-65
2023/09/23 05:16:33;;;;;;;;;;;;;;;;;;4953694;28;19922;-66
2023/09/23 05:18:59;;;;;;;;;;;;;;;;;;4949024;28;19918;-65
2023/09/23 05:21:45;;;;;;;;;;;;;;;;;;4947982;28;19922;-64
2023/09/23 05:24:11;;;;;;;;;;;;;;;;;;4967025;28;19933;-65
2023/09/23 05:26:36;;;;;;;;;;;;;;;;;;4967225;28;19929;-64
2023/09/23 05:29:04;;;;;;;;;;;;;;;;;;4948333;28;19918;-65
2023/09/23 05:31:29;;;;;;;;;;;;;;;;;;4968872;28;19918;-65
2023/09/23 05:33:54;;;;;;;;;;;;;;;;;;4948516;28;19918;-64
2023/09/23 05:36:22;;;;;;;;;;;;;;;;;;4951674;28;19965;-65
2023/09/23 05:38:48;;;;;;;;;;;;;;;;;;4931474;28;19918;-65
2023/09/23 05:41:13;;;;;;;;;;;;;;;;;;4970267;28;19964;-65
2023/09/23 05:43:39;;;;;;;;;;;;;;;;;;4967280;28;19921;-65
2023/09/23 05:46:09;;;;;;;;;;;;;;;;;;4949591;28;19933;-65
2023/09/23 05:48:37;;;;;;;;;;;;;;;;;;4969104;28;19932;-65
2023/09/23 05:51:03;;;;;;;;;;;;;;;;;;4948678;28;19922;-64
2023/09/23 05:53:32;;;;;;;;;;;;;;;;;;4950187;28;20033;-65
2023/09/23 05:55:58;;;;;;;;;;;;;;;;;;4949203;28;19964;-65
2023/09/23 05:58:23;;;;;;;;;;;;;;;;;;4964434;28;19922;-66
2023/09/23 06:00:49;;;;;;;;;;;;;;;;;;4969168;28;19921;-65
2023/09/23 06:03:16;;;;;;;;;;;;;;;;;;4941295;28;19929;-65
2023/09/23 06:05:41;;;;;;;;;;;;;;;;;;4948913;28;19922;-66
2023/09/23 06:08:12;;;;;;;;;;;;;;;;;;4967041;28;19928;-65
2023/09/23 06:10:38;;;;;;;;;;;;;;;;;;4949350;28;19917;-65
2023/09/23 06:13:06;;;;;;;;;;;;;;;;;;4948261;28;19957;-65
2023/09/23 06:15:31;;;;;;;;;;;;;;;;;;4966008;28;20056;-65
2023/09/23 06:17:57;;;;;;;;;;;;;;;;;;4968154;28;19921;-65
2023/09/23 06:20:23;;;;;;;;;;;;;;;;;;4948769;28;19992;-65
2023/09/23 06:26:05;;;;;;;;;;;;;;;;;;4969168;28;20020;-65
2023/09/23 06:28:31;;;;;;;;;;;;;;;;;;4951796;28;19922;-65
2023/09/23 06:30:56;;;;;;;;;;;;;;;;;;4950549;28;19918;-65
2023/09/23 06:33:23;;;;;;;;;;;;;;;;;;4968600;28;20016;-65
2023/09/23 06:35:49;;;;;;;;;;;;;;;;;;4961995;28;19917;-66
2023/09/23 06:38:17;;;;;;;;;;;;;;;;;;4948513;28;19964;-65
2023/09/23 06:40:42;;;;;;;;;;;;;;;;;;4948874;28;20460;-66
2023/09/23 06:43:12;;;;;;;;;;;;;;;;;;4968835;28;20044;-65
2023/09/23 06:45:37;;;;;;;;;;;;;;;;;;4962762;28;20011;-65
2023/09/23 06:51:18;;;;;;;;;;;;;;;;;;4971312;28;19969;-66
2023/09/23 06:53:44;;;;;;;;;;;;;;;;;;4958711;28;19926;-65
2023/09/23 06:56:12;;;;;;;;;;;;;;;;;;4972339;28;19922;-64
2023/09/23 06:58:37;;;;;;;;;;;;;;;;;;4947582;28;20676;-65
2023/09/23 07:01:05;;;;;;;;;;;;;;;;;;4951345;28;19922;-65
2023/09/23 07:03:33;;;;;;;;;;;;;;;;;;4930928;28;19945;-65
2023/09/23 07:05:58;;;;;;;;;;;;;;;;;;4950191;28;19953;-66
2023/09/23 07:08:23;;;;;;;;;;;;;;;;;;4933313;28;19953;-65
2023/09/23 07:10:52;;;;;;;;;;;;;;;;;;4974124;28;20544;-66
2023/09/23 07:13:17;;;;;;;;;;;;;;;;;;4932178;28;19952;-66
2023/09/23 07:15:46;;;;;;;;;;;;;;;;;;4956752;28;20941;-66
2023/09/23 07:18:13;;;;;;;;;;;;;;;;;;4952965;28;19922;-66
2023/09/23 07:20:39;;;;;;;;;;;;;;;;;;4948644;28;19918;-65
2023/09/23 07:23:07;;;;;;;;;;;;;;;;;;4958192;28;19926;-66
2023/09/23 07:25:34;;;;;;;;;;;;;;;;;;4948598;28;19984;-66
2023/09/23 07:28:00;;;;;;;;;;;;;;;;;;4970755;28;19918;-66
2023/09/23 07:30:25;;;;;;;;;;;;;;;;;;4957237;28;19988;-66
2023/09/23 07:32:50;;;;;;;;;;;;;;;;;;4971993;28;20450;-67
2023/09/23 07:35:17;;;;;;;;;;;;;;;;;;4968654;28;20007;-67
2023/09/23 07:37:45;;;;;;;;;;;;;;;;;;4964889;28;19928;-67
2023/09/23 07:40:10;;;;;;;;;;;;;;;;;;4952266;28;19929;-67
2023/09/23 07:42:35;;;;;;;;;;;;;;;;;;4950940;28;20309;-67
2023/09/23 07:45:03;;;;;;;;;;;;;;;;;;4960832;28;21741;-67
2023/09/23 07:47:31;;;;;;;;;;;;;;;;;;4972103;28;20384;-67
2023/09/23 07:50:01;;;;;;;;;;;;;;;;;;4949848;28;19928;-67
2023/09/23 07:52:30;;;;;;;;;;;;;;;;;;4951050;28;19922;-67
2023/09/23 07:54:55;;;;;;;;;;;;;;;;;;4953863;28;19918;-68
2023/09/23 07:57:24;;;;;;;;;;;;;;;;;;4953938;28;20576;-65
2023/09/23 07:59:50;;;;;;;;;;;;;;;;;;4946128;28;20425;-66
2023/09/23 08:02:15;;;;;;;;;;;;;;;;;;4937226;28;19922;-67
2023/09/23 08:04:41;;;;;;;;;;;;;;;;;;4966688;28;19972;-66
2023/09/23 08:07:11;;;;;;;;;;;;;;;;;;4951208;28;20017;-65
2023/09/23 08:09:40;;;;;;;;;;;;;;;;;;4945639;28;20859;-65
2023/09/23 08:12:05;;;;;;;;;;;;;;;;;;4949852;28;19976;-65
2023/09/23 08:14:30;;;;;;;;;;;;;;;;;;4967729;28;20008;-64
2023/09/23 08:16:56;;;;;;;;;;;;;;;;;;4948378;28;19918;-64
2023/09/23 08:19:21;;;;;;;;;;;;;;;;;;4945082;28;19922;-65
2023/09/23 08:21:46;;;;;;;;;;;;;;;;;;4947288;28;19953;-64
2023/09/23 08:24:12;;;;;;;;;;;;;;;;;;4970449;28;21795;-64
2023/09/23 08:26:38;;;;;;;;;;;;;;;;;;4970119;28;20044;-64
2023/09/23 08:29:05;;;;;;;;;;;;;;;;;;4966480;28;19921;-64
2023/09/23 08:31:30;;;;;;;;;;;;;;;;;;4965834;28;19924;-65
2023/09/23 08:33:56;;;;;;;;;;;;;;;;;;4969799;28;19921;-64
2023/09/23 08:36:21;;;;;;;;;;;;;;;;;;4961881;28;20364;-64
2023/09/23 08:42:03;;;;;;;;;;;;;;;;;;4970473;28;20364;-62
2023/09/23 08:44:32;;;;;;;;;;;;;;;;;;4949642;28;19922;-63
2023/09/23 08:46:57;;;;;;;;;;;;;;;;;;4936844;28;19991;-65
2023/09/23 08:49:23;;;;;;;;;;;;;;;;;;4951394;28;21978;-63
2023/09/23 08:51:48;;;;;;;;;;;;;;;;;;4965841;28;19972;-64
2023/09/23 08:54:14;;;;;;;;;;;;;;;;;;4949530;28;20377;-63
2023/09/23 08:56:39;;;;;;;;;;;;;;;;;;4931839;28;20038;-63
2023/09/23 08:59:05;;;;;;;;;;;;;;;;;;4949662;28;19929;-63
2023/09/23 09:01:30;;;;;;;;;;;;;;;;;;4971315;28;19922;-63
2023/09/23 09:03:58;;;;;;;;;;;;;;;;;;4970388;28;19918;-62
2023/09/23 09:06:29;;;;;;;;;;;;;;;;;;4949863;28;19922;-63
2023/09/23 09:08:59;;;;;;;;;;;;;;;;;;4966897;28;19921;-64
2023/09/23 09:11:25;;;;;;;;;;;;;;;;;;4939902;28;19922;-63
2023/09/23 09:13:50;;;;;;;;;;;;;;;;;;4947825;28;19929;-63
2023/09/23 09:16:16;;;;;;;;;;;;;;;;;;4969999;28;19962;-67
2023/09/23 09:18:41;;;;;;;;;;;;;;;;;;4969205;28;19925;-64
2023/09/23 09:21:08;;;;;;;;;;;;;;;;;;4945273;28;20601;-64
2023/09/23 09:23:38;;;;;;;;;;;;;;;;;;4941913;28;19926;-63
2023/09/23 09:26:06;;;;;;;;;;;;;;;;;;4947317;28;19918;-64
2023/09/23 09:28:31;;;;;;;;;;;;;;;;;;4951627;28;19933;-64
2023/09/23 09:31:04;;;;;;;;;;;;;;;;;;4950638;28;19924;-63
2023/09/23 09:33:34;;;;;;;;;;;;;;;;;;4958485;28;19961;-63
2023/09/23 09:35:59;;;;;;;;;;;;;;;;;;4947802;28;19926;-65
2023/09/23 09:38:27;;;;;;;;;;;;;;;;;;4933483;28;19926;-63
2023/09/23 09:40:56;;;;;;;;;;;;;;;;;;4931604;28;19921;-64
2023/09/23 09:43:21;;;;;;;;;;;;;;;;;;4952445;28;20814;-66
2023/09/23 09:45:49;;;;;;;;;;;;;;;;;;4921679;28;20016;-63
2023/09/23 09:48:14;;;;;;;;;;;;;;;;;;4939032;28;19928;-62
2023/09/23 09:50:39;;;;;;;;;;;;;;;;;;4952216;28;20041;-64
2023/09/23 09:53:10;;;;;;;;;;;;;;;;;;4915582;28;19933;-63
2023/09/23 09:55:40;;;;;;;;;;;;;;;;;;4953341;28;20017;-63
2023/09/23 09:58:06;;;;;;;;;;;;;;;;;;4948478;28;19922;-63
2023/09/23 10:00:35;;;;;;;;;;;;;;;;;;4936608;28;19928;-64
2023/09/23 10:03:01;;;;;;;;;;;;;;;;;;4949815;28;20808;-63
2023/09/23 10:05:29;;;;;;;;;;;;;;;;;;4930785;28;20837;-63
2023/09/23 10:07:57;;;;;;;;;;;;;;;;;;4932399;28;19918;-63
2023/09/23 10:10:25;;;;;;;;;;;;;;;;;;4930980;28;19919;-65
2023/09/23 10:12:54;;;;;;;;;;;;;;;;;;4952580;28;19922;-63
2023/09/23 10:15:25;;;;;;;;;;;;;;;;;;4929589;28;21897;-62
2023/09/23 10:17:50;;;;;;;;;;;;;;;;;;4949597;28;19922;-63
2023/09/23 10:20:17;;;;;;;;;;;;;;;;;;4930690;28;19922;-63
2023/09/23 10:22:48;;;;;;;;;;;;;;;;;;4951342;28;20012;-64
2023/09/23 10:25:13;;;;;;;;;;;;;;;;;;4948417;28;19998;-63
2023/09/23 10:27:41;;;;;;;;;;;;;;;;;;4952731;28;19922;-64
2023/09/23 10:30:07;;;;;;;;;;;;;;;;;;4930396;28;19922;-64
2023/09/23 10:32:32;;;;;;;;;;;;;;;;;;4935222;28;19922;-64
2023/09/23 10:35:01;;;;;;;;;;;;;;;;;;4955153;28;19922;-65
2023/09/23 10:37:26;;;;;;;;;;;;;;;;;;4955567;28;19932;-64
2023/09/23 10:39:54;;;;;;;;;;;;;;;;;;4952848;28;20457;-65
2023/09/23 10:42:19;;;;;;;;;;;;;;;;;;4931493;28;19926;-66
2023/09/23 10:44:48;;;;;;;;;;;;;;;;;;4953998;28;20024;-65
2023/09/23 10:47:14;;;;;;;;;;;;;;;;;;4938038;28;19918;-65
2023/09/23 10:49:39;;;;;;;;;;;;;;;;;;4964332;28;20065;-67
2023/09/23 10:52:04;;;;;;;;;;;;;;;;;;4937375;28;19918;-66
2023/09/23 10:54:30;;;;;;;;;;;;;;;;;;4947429;28;19922;-66
2023/09/23 10:57:00;;;;;;;;;;;;;;;;;;4968018;28;20677;-66
2023/09/23 10:59:27;;;;;;;;;;;;;;;;;;4949875;28;19922;-66
2023/09/23 11:01:56;;;;;;;;;;;;;;;;;;4969635;28;20510;-65
2023/09/23 11:04:21;;;;;;;;;;;;;;;;;;4968496;28;19921;-66
2023/09/23 11:06:49;;;;;;;;;;;;;;;;;;4932419;28;19922;-66
2023/09/23 11:09:14;;;;;;;;;;;;;;;;;;4949684;28;19921;-67
2023/09/23 11:11:42;;;;;;;;;;;;;;;;;;4968140;28;19968;-66
2023/09/23 11:14:07;;;;;;;;;;;;;;;;;;4951368;28;20008;-67
2023/09/23 11:16:35;;;;;;;;;;;;;;;;;;4947674;28;19961;-67
2023/09/23 11:19:06;;;;;;;;;;;;;;;;;;4967411;28;20515;-66
2023/09/23 11:21:31;;;;;;;;;;;;;;;;;;4930384;28;19928;-65
2023/09/23 11:23:57;;;;;;;;;;;;;;;;;;4951675;28;19925;-66
2023/09/23 11:26:25;;;;;;;;;;;;;;;;;;4947851;28;19971;-66
2023/09/23 11:28:50;;;;;;;;;;;;;;;;;;4934316;28;19928;-64
2023/09/23 11:31:17;;;;;;;;;;;;;;;;;;4931839;28;20585;-65
2023/09/23 11:33:42;;;;;;;;;;;;;;;;;;4931614;28;21160;-64
2023/09/23 11:36:10;;;;;;;;;;;;;;;;;;4966445;28;19953;-65
2023/09/23 11:38:35;;;;;;;;;;;;;;;;;;4931905;28;20289;-67
2023/09/23 11:41:04;;;;;;;;;;;;;;;;;;4948614;28;20000;-65
2023/09/23 11:43:29;;;;;;;;;;;;;;;;;;4972244;28;19929;-66
2023/09/23 11:45:54;;;;;;;;;;;;;;;;;;4945770;28;19986;-66
2023/09/23 11:48:20;;;;;;;;;;;;;;;;;;4935872;28;19917;-64
2023/09/23 11:50:46;;;;;;;;;;;;;;;;;;4953245;28;20070;-66
2023/09/23 11:53:14;;;;;;;;;;;;;;;;;;4950144;28;19929;-67
2023/09/23 11:55:39;;;;;;;;;;;;;;;;;;4970567;28;19921;-65
2023/09/23 11:58:08;;;;;;;;;;;;;;;;;;4949378;28;20480;-65
2023/09/23 12:00:36;;;;;;;;;;;;;;;;;;4952489;28;19939;-65
2023/09/23 12:03:04;;;;;;;;;;;;;;;;;;4952222;28;20367;-67
2023/09/23 12:05:34;;;;;;;;;;;;;;;;;;4952271;28;19968;-67
2023/09/23 12:08:03;;;;;;;;;;;;;;;;;;4952621;28;19922;-67
2023/09/23 12:10:29;;;;;;;;;;;;;;;;;;4967590;28;21007;-67
2023/09/23 12:13:02;;;;;;;;;;;;;;;;;;4947067;28;19918;-67
2023/09/23 12:15:28;;;;;;;;;;;;;;;;;;4947050;28;19929;-66
2023/09/23 12:17:53;;;;;;;;;;;;;;;;;;4950266;28;19929;-66
2023/09/23 12:23:36;;;;;;;;;;;;;;;;;;4970702;28;19929;-67
2023/09/23 12:26:04;;;;;;;;;;;;;;;;;;4969010;28;19957;-67
2023/09/23 12:28:30;;;;;;;;;;;;;;;;;;4967212;28;20795;-66
2023/09/23 12:30:58;;;;;;;;;;;;;;;;;;4972073;28;19956;-66
2023/09/23 12:33:27;;;;;;;;;;;;;;;;;;4968818;28;20052;-67
2023/09/23 12:35:52;;;;;;;;;;;;;;;;;;4967429;28;19928;-67
2023/09/23 12:38:17;;;;;;;;;;;;;;;;;;4970741;28;19921;-66
2023/09/23 12:40:45;;;;;;;;;;;;;;;;;;4967530;28;19941;-65
2023/09/23 12:43:14;;;;;;;;;;;;;;;;;;4928489;28;19926;-66
2023/09/23 12:45:41;;;;;;;;;;;;;;;;;;4967621;28;19926;-64
2023/09/23 12:48:07;;;;;;;;;;;;;;;;;;4955411;28;20009;-65
2023/09/23 12:50:35;;;;;;;;;;;;;;;;;;4945332;28;19918;-65
2023/09/23 12:53:01;;;;;;;;;;;;;;;;;;4946490;28;20456;-65
2023/09/23 12:55:27;;;;;;;;;;;;;;;;;;4951081;28;19976;-65
2023/09/23 12:57:55;;;;;;;;;;;;;;;;;;4948126;28;19929;-63
2023/09/23 13:00:20;;;;;;;;;;;;;;;;;;4954605;28;19922;-64
2023/09/23 13:02:46;;;;;;;;;;;;;;;;;;4941556;28;19937;-64
2023/09/23 13:05:19;;;;;;;;;;;;;;;;;;5032611;28;19925;-63
2023/09/23 13:07:44;;;;;;;;;;;;;;;;;;5032110;28;19928;-65
2023/09/23 13:10:11;;;;;;;;;;;;;;;;;;5032144;28;20045;-64
2023/09/23 13:12:37;;;;;;;;;;;;;;;;;;5028113;28;20948;-64
2023/09/23 13:15:05;;;;;;;;;;;;;;;;;;5033972;28;19921;-63
2023/09/23 13:17:32;;;;;;;;;;;;;;;;;;5023032;28;19956;-65
2023/09/23 13:19:58;;;;;;;;;;;;;;;;;;5031754;28;19967;-64
2023/09/23 13:22:23;;;;;;;;;;;;;;;;;;5034900;28;21225;-64
2023/09/23 13:24:52;;;;;;;;;;;;;;;;;;5021086;28;19925;-64
2023/09/23 13:27:17;;;;;;;;;;;;;;;;;;5037388;28;20292;-65
2023/09/23 13:29:42;;;;;;;;;;;;;;;;;;5033030;28;19921;-65
2023/09/23 13:32:10;;;;;;;;;;;;;;;;;;5023069;28;19924;-67
2023/09/23 13:34:36;;;;;;;;;;;;;;;;;;5033747;28;19921;-65
2023/09/23 13:37:02;;;;;;;;;;;;;;;;;;5031349;28;19942;-65
2023/09/23 13:39:27;;;;;;;;;;;;;;;;;;5019536;28;19963;-65
2023/09/23 13:41:53;;;;;;;;;;;;;;;;;;5015230;28;20035;-65
2023/09/23 13:44:24;;;;;;;;;;;;;;;;;;5031232;28;19925;-65
2023/09/23 13:46:49;;;;;;;;;;;;;;;;;;5034086;28;19921;-65
2023/09/23 13:49:14;;;;;;;;;;;;;;;;;;5030952;28;19975;-65
2023/09/23 13:51:40;;;;;;;;;;;;;;;;;;5035494;28;19974;-64
2023/09/23 13:54:05;;;;;;;;;;;;;;;;;;5016571;28;19921;-66
2023/09/23 13:56:30;;;;;;;;;;;;;;;;;;5032866;28;20479;-67
2023/09/23 13:58:58;;;;;;;;;;;;;;;;;;5020800;28;19952;-66
2023/09/23 14:01:24;;;;;;;;;;;;;;;;;;5029614;28;20008;-66
2023/09/23 14:03:51;;;;;;;;;;;;;;;;;;5043056;28;19939;-66
2023/09/23 14:06:17;;;;;;;;;;;;;;;;;;5036726;28;19920;-66
2023/09/23 14:08:43;;;;;;;;;;;;;;;;;;5055248;28;19927;-66
2023/09/23 14:11:10;;;;;;;;;;;;;;;;;;5036144;28;21048;-65
2023/09/23 14:13:36;;;;;;;;;;;;;;;;;;5034635;28;20019;-65
2023/09/23 14:16:01;;;;;;;;;;;;;;;;;;5027366;28;19916;-66
2023/09/23 14:18:32;;;;;;;;;;;;;;;;;;5008102;28;19928;-65
2023/09/23 14:20:57;;;;;;;;;;;;;;;;;;5025874;28;20041;-64
2023/09/23 14:23:23;;;;;;;;;;;;;;;;;;5023222;28;20042;-65
2023/09/23 14:25:50;;;;;;;;;;;;;;;;;;5022653;28;19920;-66
2023/09/23 14:28:16;;;;;;;;;;;;;;;;;;5010463;28;20016;-66
2023/09/23 14:30:41;;;;;;;;;;;;;;;;;;5040228;28;19921;-66
2023/09/23 14:33:06;;;;;;;;;;;;;;;;;;5008301;28;20003;-66
2023/09/23 14:35:34;;;;;;;;;;;;;;;;;;5021470;28;19930;-67
2023/09/23 14:38:09;;;;;;;;;;;;;;;;;;5028312;28;19921;-67
2023/09/23 14:43:52;;;;;;;;;;;;;;;;;;5037994;28;19952;-67
2023/09/23 14:46:18;;;;;;;;;;;;;;;;;;5023452;28;20360;-67
2023/09/23 14:48:43;;;;;;;;;;;;;;;;;;5020460;28;19928;-66
2023/09/23 14:51:08;;;;;;;;;;;;;;;;;;5022182;28;20019;-67
2023/09/23 14:53:34;;;;;;;;;;;;;;;;;;5037863;28;19920;-67
2023/09/23 14:56:01;;;;;;;;;;;;;;;;;;5010354;28;20005;-68
2023/09/23 14:58:29;;;;;;;;;;;;;;;;;;5040272;28;20050;-68
2023/09/23 15:00:54;;;;;;;;;;;;;;;;;;5010078;28;19917;-68
2023/09/23 15:03:20;;;;;;;;;;;;;;;;;;5037850;28;19997;-68
2023/09/23 15:05:46;;;;;;;;;;;;;;;;;;5035943;28;19921;-68
2023/09/23 15:08:14;;;;;;;;;;;;;;;;;;5020788;28;20223;-69
2023/09/23 15:10:40;;;;;;;;;;;;;;;;;;5037598;28;20529;-68
2023/09/23 15:13:05;;;;;;;;;;;;;;;;;;5006657;28;19921;-68
2023/09/23 15:15:33;;;;;;;;;;;;;;;;;;5018000;28;19931;-68
2023/09/23 15:17:58;;;;;;;;;;;;;;;;;;5021476;28;20008;-68
2023/09/23 15:20:23;;;;;;;;;;;;;;;;;;5023057;28;19920;-68
2023/09/23 15:22:54;;;;;;;;;;;;;;;;;;5022755;28;19963;-67
2023/09/23 15:25:21;;;;;;;;;;;;;;;;;;5019326;28;19931;-65
2023/09/23 15:27:47;;;;;;;;;;;;;;;;;;5018877;28;19916;-67
2023/09/23 15:30:13;;;;;;;;;;;;;;;;;;5018534;28;20711;-67
2023/09/23 15:32:38;;;;;;;;;;;;;;;;;;5022394;28;19920;-66
2023/09/23 15:35:03;;;;;;;;;;;;;;;;;;5022770;28;21839;-65
2023/09/23 15:37:31;;;;;;;;;;;;;;;;;;5019953;28;19920;-65
2023/09/23 15:39:58;;;;;;;;;;;;;;;;;;5010331;28;19924;-66
2023/09/23 15:42:25;;;;;;;;;;;;;;;;;;5019768;28;19962;-66
2023/09/23 15:44:51;;;;;;;;;;;;;;;;;;5018425;28;19966;-65
2023/09/23 15:47:18;;;;;;;;;;;;;;;;;;5023154;28;20254;-65
2023/09/23 15:49:46;;;;;;;;;;;;;;;;;;5006106;28;19928;-65
2023/09/23 15:52:14;;;;;;;;;;;;;;;;;;5016336;28;19985;-64
2023/09/23 15:54:40;;;;;;;;;;;;;;;;;;5006028;28;20846;-65
2023/09/23 15:57:06;;;;;;;;;;;;;;;;;;5005145;28;19927;-65
2023/09/23 15:59:31;;;;;;;;;;;;;;;;;;5018406;28;19920;-65
2023/09/23 16:01:57;;;;;;;;;;;;;;;;;;5018563;28;19924;-64
2023/09/23 16:07:41;;;;;;;;;;;;;;;;;;5038848;28;19927;-64
2023/09/23 16:10:06;;;;;;;;;;;;;;;;;;5021115;28;19967;-64
2023/09/23 16:12:31;;;;;;;;;;;;;;;;;;5021006;28;20330;-64
2023/09/23 16:14:59;;;;;;;;;;;;;;;;;;5014639;28;20482;-64
2023/09/23 16:17:37;;;;;;;;;;;;;;;;;;5019832;28;19931;-64
2023/09/23 16:20:04;;;;;;;;;;;;;;;;;;5017215;28;19948;-64
2023/09/23 16:22:29;;;;;;;;;;;;;;;;;;5037954;28;19939;-64
2023/09/23 16:24:55;;;;;;;;;;;;;;;;;;5017078;28;20400;-64
2023/09/23 16:27:21;;;;;;;;;;;;;;;;;;5020140;28;19921;-64
2023/09/23 16:29:49;;;;;;;;;;;;;;;;;;5017663;28;19924;-64
2023/09/23 16:32:14;;;;;;;;;;;;;;;;;;5020516;28;19916;-63
2023/09/23 16:34:40;;;;;;;;;;;;;;;;;;5037879;28;19927;-64
2023/09/23 16:37:08;;;;;;;;;;;;;;;;;;5009454;28;19966;-63
2023/09/23 16:39:33;;;;;;;;;;;;;;;;;;5018873;28;20834;-65
2023/09/23 16:42:01;;;;;;;;;;;;;;;;;;5037084;28;19921;-65
2023/09/23 16:44:27;;;;;;;;;;;;;;;;;;5035758;28;20415;-63
2023/09/23 16:46:55;;;;;;;;;;;;;;;;;;5022546;28;19931;-62
2023/09/23 16:49:20;;;;;;;;;;;;;;;;;;5018236;28;20088;-63
2023/09/23 16:51:45;;;;;;;;;;;;;;;;;;5038078;28;20642;-62
2023/09/23 16:54:11;;;;;;;;;;;;;;;;;;5016547;28;19931;-62
2023/09/23 16:56:36;;;;;;;;;;;;;;;;;;5018474;28;19916;-63
2023/09/23 16:59:03;;;;;;;;;;;;;;;;;;5020504;28;19917;-63
2023/09/23 17:01:37;;;;;;;;;;;;;;;;;;5013452;28;19921;-64
2023/09/23 17:04:02;;;;;;;;;;;;;;;;;;5021970;28;19954;-64
2023/09/23 17:06:28;;;;;;;;;;;;;;;;;;5034330;28;20669;-64
2023/09/23 17:08:53;;;;;;;;;;;;;;;;;;5019364;28;19916;-63
2023/09/23 17:11:21;;;;;;;;;;;;;;;;;;5017222;28;20506;-64
2023/09/23 17:13:47;;;;;;;;;;;;;;;;;;5032148;28;19920;-63